sensor_id;sensor_type;location;lat;lon;timestamp;noise_LAeq;noise_LA_min;noise_LA_max;noise_LA01;noise_LA95
69608;Laerm;57251;52.248;4.812;2023-04-10T00:00:00;34.10;31.82;38.92;;
69608;Laerm;57251;52.248;4.812;2023-04-10T00:00:37;35.71;31.92;51.13;;
69608;Laerm;57251;52.248;4.812;2023-04-10T00:00:57;33.21;31.34;40.12;;
69608;Laerm;57251;52.248;4.812;2023-04-10T00:01:11;44.15;31.83;59.29;;
69608;Laerm;57251;52.248;4.812;2023-04-10T00:01:25;35.04;31.75;41.99;;
69608;Laerm;57251;52.248;4.812;2023-04-10T00:01:47;35.89;32.11;47.66;;
69608;Laerm;57251;52.248;4.812;2023-04-10T00:02:07;35.08;32.39;43.82;;
69608;Laerm;57251;52.248;4.812;2023-04-10T00:02:20;34.45;32.36;41.15;;
69608;Laerm;57251;52.248;4.812;2023-04-10T00:02:43;34.66;31.89;47.73;;
69608;Laerm;57251;52.248;4.812;2023-04-10T00:02:59;49.50;31.64;65.71;;
69608;Laerm;57251;52.248;4.812;2023-04-10T00:03:13;40.85;31.43;58.00;;
69608;Laerm;57251;52.248;4.812;2023-04-10T00:03:24;33.26;31.15;48.37;;
69608;Laerm;57251;52.248;4.812;2023-04-10T00:03:46;35.32;31.07;48.61;;
69608;Laerm;57251;52.248;4.812;2023-04-10T00:03:57;35.91;32.33;47.47;;
69608;Laerm;57251;52.248;4.812;2023-04-10T00:04:08;33.93;31.41;43.63;;
69608;Laerm;57251;52.248;4.812;2023-04-10T00:04:23;36.55;31.71;55.86;;
69608;Laerm;57251;52.248;4.812;2023-04-10T00:04:35;38.77;31.93;54.60;;
69608;Laerm;57251;52.248;4.812;2023-04-10T00:04:49;41.71;33.34;64.37;;
69608;Laerm;57251;52.248;4.812;2023-04-10T00:05:04;36.11;32.86;49.98;;
69608;Laerm;57251;52.248;4.812;2023-04-10T00:05:21;35.43;32.03;47.52;;
69608;Laerm;57251;52.248;4.812;2023-04-10T00:05:32;40.33;33.17;48.83;;
69608;Laerm;57251;52.248;4.812;2023-04-10T00:06:04;40.62;33.31;43.68;;
69608;Laerm;57251;52.248;4.812;2023-04-10T00:06:20;37.59;32.61;44.28;;
69608;Laerm;57251;52.248;4.812;2023-04-10T00:06:52;44.41;35.04;51.08;;
69608;Laerm;57251;52.248;4.812;2023-04-10T00:07:05;44.41;39.74;49.40;;
69608;Laerm;57251;52.248;4.812;2023-04-10T00:07:16;43.01;37.80;46.79;;
69608;Laerm;57251;52.248;4.812;2023-04-10T00:07:27;42.16;37.26;49.37;;
69608;Laerm;57251;52.248;4.812;2023-04-10T00:07:39;56.36;41.91;64.50;;
69608;Laerm;57251;52.248;4.812;2023-04-10T00:08:01;50.10;35.55;58.59;;
69608;Laerm;57251;52.248;4.812;2023-04-10T00:08:12;43.89;32.57;54.23;;
69608;Laerm;57251;52.248;4.812;2023-04-10T00:08:26;38.99;31.85;55.50;;
69608;Laerm;57251;52.248;4.812;2023-04-10T00:08:37;35.12;31.73;41.22;;
69608;Laerm;57251;52.248;4.812;2023-04-10T00:08:47;42.26;34.98;51.79;;
69608;Laerm;57251;52.248;4.812;2023-04-10T00:08:58;46.04;34.68;55.12;;
69608;Laerm;57251;52.248;4.812;2023-04-10T00:09:15;37.26;33.04;45.00;;
69608;Laerm;57251;52.248;4.812;2023-04-10T00:09:30;36.77;33.18;45.46;;
69608;Laerm;57251;52.248;4.812;2023-04-10T00:09:43;37.48;34.44;41.68;;
69608;Laerm;57251;52.248;4.812;2023-04-10T00:09:59;37.25;33.60;43.60;;
69608;Laerm;57251;52.248;4.812;2023-04-10T00:10:13;39.42;34.45;52.76;;
69608;Laerm;57251;52.248;4.812;2023-04-10T00:11:12;37.54;33.93;42.82;;
69608;Laerm;57251;52.248;4.812;2023-04-10T00:11:20;38.06;32.27;44.16;;
69608;Laerm;57251;52.248;4.812;2023-04-10T00:11:30;34.66;31.92;45.99;;
69608;Laerm;57251;52.248;4.812;2023-04-10T00:11:47;36.51;33.15;47.01;;
69608;Laerm;57251;52.248;4.812;2023-04-10T00:12:06;35.29;31.89;47.14;;
69608;Laerm;57251;52.248;4.812;2023-04-10T00:13:14;33.28;31.64;37.15;;
69608;Laerm;57251;52.248;4.812;2023-04-10T00:13:30;36.47;31.33;54.28;;
69608;Laerm;57251;52.248;4.812;2023-04-10T00:13:54;34.77;31.71;44.17;;
69608;Laerm;57251;52.248;4.812;2023-04-10T00:14:10;34.23;32.57;39.12;;
69608;Laerm;57251;52.248;4.812;2023-04-10T00:14:21;33.60;32.06;35.62;;
69608;Laerm;57251;52.248;4.812;2023-04-10T00:14:41;35.08;31.12;45.86;;
69608;Laerm;57251;52.248;4.812;2023-04-10T00:14:54;32.63;30.87;38.40;;
69608;Laerm;57251;52.248;4.812;2023-04-10T00:15:08;32.24;30.34;33.58;;
69608;Laerm;57251;52.248;4.812;2023-04-10T00:15:31;32.64;30.94;41.03;;
69608;Laerm;57251;52.248;4.812;2023-04-10T00:15:56;32.94;31.39;40.95;;
69608;Laerm;57251;52.248;4.812;2023-04-10T00:16:07;42.22;31.21;58.05;;
69608;Laerm;57251;52.248;4.812;2023-04-10T00:16:18;33.30;31.60;35.40;;
69608;Laerm;57251;52.248;4.812;2023-04-10T00:16:29;35.66;31.80;45.79;;
69608;Laerm;57251;52.248;4.812;2023-04-10T00:16:39;34.44;31.93;37.41;;
69608;Laerm;57251;52.248;4.812;2023-04-10T00:16:50;33.34;31.85;35.92;;
69608;Laerm;57251;52.248;4.812;2023-04-10T00:17:01;32.71;31.37;34.29;;
69608;Laerm;57251;52.248;4.812;2023-04-10T00:17:12;33.17;31.45;35.90;;
69608;Laerm;57251;52.248;4.812;2023-04-10T00:17:22;32.97;31.45;34.64;;
69608;Laerm;57251;52.248;4.812;2023-04-10T00:17:33;33.29;31.75;36.47;;
69608;Laerm;57251;52.248;4.812;2023-04-10T00:17:47;33.93;31.92;38.34;;
69608;Laerm;57251;52.248;4.812;2023-04-10T00:18:01;35.47;33.35;40.75;;
69608;Laerm;57251;52.248;4.812;2023-04-10T00:18:20;40.53;31.35;56.55;;
69608;Laerm;57251;52.248;4.812;2023-04-10T00:18:34;34.18;31.17;47.14;;
69608;Laerm;57251;52.248;4.812;2023-04-10T00:18:48;33.61;31.40;36.62;;
69608;Laerm;57251;52.248;4.812;2023-04-10T00:19:02;33.33;31.31;37.44;;
69608;Laerm;57251;52.248;4.812;2023-04-10T00:19:12;32.66;31.15;34.40;;
69608;Laerm;57251;52.248;4.812;2023-04-10T00:19:27;33.09;31.43;39.21;;
69608;Laerm;57251;52.248;4.812;2023-04-10T00:19:38;32.68;31.13;38.54;;
69608;Laerm;57251;52.248;4.812;2023-04-10T00:19:49;32.79;31.25;39.05;;
69608;Laerm;57251;52.248;4.812;2023-04-10T00:20:14;33.06;31.04;39.67;;
69608;Laerm;57251;52.248;4.812;2023-04-10T00:20:25;46.06;30.96;58.88;;
69608;Laerm;57251;52.248;4.812;2023-04-10T00:20:38;39.21;31.47;54.57;;
69608;Laerm;57251;52.248;4.812;2023-04-10T00:20:58;32.28;30.95;33.65;;
69608;Laerm;57251;52.248;4.812;2023-04-10T00:21:12;36.47;31.01;50.87;;
69608;Laerm;57251;52.248;4.812;2023-04-10T00:21:23;42.57;31.31;59.00;;
69608;Laerm;57251;52.248;4.812;2023-04-10T00:21:34;33.48;31.24;42.77;;
69608;Laerm;57251;52.248;4.812;2023-04-10T00:21:49;35.19;31.51;47.39;;
69608;Laerm;57251;52.248;4.812;2023-04-10T00:22:00;32.99;31.32;37.40;;
69608;Laerm;57251;52.248;4.812;2023-04-10T00:22:14;37.86;30.95;50.24;;
69608;Laerm;57251;52.248;4.812;2023-04-10T00:22:24;33.69;31.71;40.35;;
69608;Laerm;57251;52.248;4.812;2023-04-10T00:22:35;34.17;31.46;42.67;;
69608;Laerm;57251;52.248;4.812;2023-04-10T00:22:46;33.18;31.38;34.96;;
69608;Laerm;57251;52.248;4.812;2023-04-10T00:22:57;42.71;31.72;52.60;;
69608;Laerm;57251;52.248;4.812;2023-04-10T00:23:19;36.68;31.68;49.68;;
69608;Laerm;57251;52.248;4.812;2023-04-10T00:23:30;35.78;31.33;44.96;;
69608;Laerm;57251;52.248;4.812;2023-04-10T00:23:45;32.66;30.72;38.31;;
69608;Laerm;57251;52.248;4.812;2023-04-10T00:23:56;34.30;31.39;38.77;;
69608;Laerm;57251;52.248;4.812;2023-04-10T00:24:13;32.72;31.01;34.71;;
69608;Laerm;57251;52.248;4.812;2023-04-10T00:24:32;43.77;31.94;59.11;;
69608;Laerm;57251;52.248;4.812;2023-04-10T00:24:51;39.32;32.13;52.20;;
69608;Laerm;57251;52.248;4.812;2023-04-10T00:25:02;33.09;31.20;40.25;;
69608;Laerm;57251;52.248;4.812;2023-04-10T00:25:12;32.87;31.17;36.96;;
69608;Laerm;57251;52.248;4.812;2023-04-10T00:25:23;41.26;31.54;53.28;;
69608;Laerm;57251;52.248;4.812;2023-04-10T00:25:37;33.61;31.02;43.74;;
69608;Laerm;57251;52.248;4.812;2023-04-10T00:25:54;34.24;31.05;45.56;;
69608;Laerm;57251;52.248;4.812;2023-04-10T00:26:04;33.12;31.68;35.96;;
69608;Laerm;57251;52.248;4.812;2023-04-10T00:26:15;36.80;31.43;49.77;;
69608;Laerm;57251;52.248;4.812;2023-04-10T00:26:26;34.14;31.14;45.85;;
69608;Laerm;57251;52.248;4.812;2023-04-10T00:26:40;34.43;31.36;41.68;;
69608;Laerm;57251;52.248;4.812;2023-04-10T00:26:53;36.68;31.92;46.66;;
69608;Laerm;57251;52.248;4.812;2023-04-10T00:27:09;37.09;31.24;50.04;;
69608;Laerm;57251;52.248;4.812;2023-04-10T00:27:19;35.67;33.68;38.71;;
69608;Laerm;57251;52.248;4.812;2023-04-10T00:27:30;36.57;33.91;40.82;;
69608;Laerm;57251;52.248;4.812;2023-04-10T00:27:40;36.50;33.18;39.94;;
69608;Laerm;57251;52.248;4.812;2023-04-10T00:27:54;36.42;33.73;38.83;;
69608;Laerm;57251;52.248;4.812;2023-04-10T00:28:05;42.64;34.23;60.43;;
69608;Laerm;57251;52.248;4.812;2023-04-10T00:28:18;51.34;32.66;66.67;;
69608;Laerm;57251;52.248;4.812;2023-04-10T00:28:29;43.56;32.28;57.50;;
69608;Laerm;57251;52.248;4.812;2023-04-10T00:28:39;47.56;33.65;65.38;;
69608;Laerm;57251;52.248;4.812;2023-04-10T00:28:50;42.68;31.99;59.69;;
69608;Laerm;57251;52.248;4.812;2023-04-10T00:29:03;42.73;32.37;61.01;;
69608;Laerm;57251;52.248;4.812;2023-04-10T00:29:15;40.78;32.63;52.98;;
69608;Laerm;57251;52.248;4.812;2023-04-10T00:29:29;35.17;32.20;48.21;;
69608;Laerm;57251;52.248;4.812;2023-04-10T00:29:40;33.12;31.63;34.92;;
69608;Laerm;57251;52.248;4.812;2023-04-10T00:29:54;41.72;31.91;54.04;;
69608;Laerm;57251;52.248;4.812;2023-04-10T00:30:12;37.76;32.10;51.03;;
69608;Laerm;57251;52.248;4.812;2023-04-10T00:30:23;34.55;32.34;40.62;;
69608;Laerm;57251;52.248;4.812;2023-04-10T00:30:35;34.31;32.33;37.12;;
69608;Laerm;57251;52.248;4.812;2023-04-10T00:30:49;42.27;32.30;53.46;;
69608;Laerm;57251;52.248;4.812;2023-04-10T00:30:59;40.47;31.70;48.35;;
69608;Laerm;57251;52.248;4.812;2023-04-10T00:31:15;34.53;32.20;41.53;;
69608;Laerm;57251;52.248;4.812;2023-04-10T00:31:26;33.70;31.58;37.79;;
69608;Laerm;57251;52.248;4.812;2023-04-10T00:31:58;37.96;32.13;52.58;;
69608;Laerm;57251;52.248;4.812;2023-04-10T00:32:12;35.71;31.80;50.57;;
69608;Laerm;57251;52.248;4.812;2023-04-10T00:32:23;32.98;31.23;36.29;;
69608;Laerm;57251;52.248;4.812;2023-04-10T00:32:34;32.66;31.15;34.64;;
69608;Laerm;57251;52.248;4.812;2023-04-10T00:32:48;33.22;31.52;37.25;;
69608;Laerm;57251;52.248;4.812;2023-04-10T00:33:02;33.65;31.38;37.55;;
69608;Laerm;57251;52.248;4.812;2023-04-10T00:33:15;33.44;31.88;35.66;;
69608;Laerm;57251;52.248;4.812;2023-04-10T00:33:29;32.79;31.06;35.22;;
69608;Laerm;57251;52.248;4.812;2023-04-10T00:33:40;33.73;31.51;42.23;;
69608;Laerm;57251;52.248;4.812;2023-04-10T00:33:53;44.62;31.34;56.35;;
69608;Laerm;57251;52.248;4.812;2023-04-10T00:34:03;45.75;32.18;61.93;;
69608;Laerm;57251;52.248;4.812;2023-04-10T00:34:15;42.91;31.57;56.15;;
69608;Laerm;57251;52.248;4.812;2023-04-10T00:34:26;34.17;31.45;46.22;;
69608;Laerm;57251;52.248;4.812;2023-04-10T00:35:03;33.59;31.13;42.19;;
69608;Laerm;57251;52.248;4.812;2023-04-10T00:35:12;34.33;32.16;38.18;;
69608;Laerm;57251;52.248;4.812;2023-04-10T00:35:22;33.54;31.73;35.87;;
69608;Laerm;57251;52.248;4.812;2023-04-10T00:35:33;35.61;31.87;46.89;;
69608;Laerm;57251;52.248;4.812;2023-04-10T00:35:43;33.41;31.52;36.42;;
69608;Laerm;57251;52.248;4.812;2023-04-10T00:35:53;33.75;32.00;35.97;;
69608;Laerm;57251;52.248;4.812;2023-04-10T00:36:03;32.56;30.65;35.84;;
69608;Laerm;57251;52.248;4.812;2023-04-10T00:36:14;32.44;30.91;35.96;;
69608;Laerm;57251;52.248;4.812;2023-04-10T00:36:24;32.93;31.39;39.07;;
69608;Laerm;57251;52.248;4.812;2023-04-10T00:36:35;32.64;30.51;34.90;;
69608;Laerm;57251;52.248;4.812;2023-04-10T00:36:46;32.50;30.94;36.60;;
69608;Laerm;57251;52.248;4.812;2023-04-10T00:36:57;36.10;31.04;46.81;;
69608;Laerm;57251;52.248;4.812;2023-04-10T00:37:07;37.27;31.19;45.66;;
69608;Laerm;57251;52.248;4.812;2023-04-10T00:37:17;33.65;32.01;36.07;;
69608;Laerm;57251;52.248;4.812;2023-04-10T00:37:27;37.21;34.08;42.22;;
69608;Laerm;57251;52.248;4.812;2023-04-10T00:37:38;34.13;31.64;37.85;;
69608;Laerm;57251;52.248;4.812;2023-04-10T00:37:48;33.34;31.47;39.15;;
69608;Laerm;57251;52.248;4.812;2023-04-10T00:37:59;33.30;31.48;36.12;;
69608;Laerm;57251;52.248;4.812;2023-04-10T00:38:09;33.38;31.01;40.06;;
69608;Laerm;57251;52.248;4.812;2023-04-10T00:38:19;33.58;31.63;38.81;;
69608;Laerm;57251;52.248;4.812;2023-04-10T00:38:30;40.42;31.90;51.66;;
69608;Laerm;57251;52.248;4.812;2023-04-10T00:38:40;33.78;31.27;42.44;;
69608;Laerm;57251;52.248;4.812;2023-04-10T00:38:51;34.41;32.69;36.50;;
69608;Laerm;57251;52.248;4.812;2023-04-10T00:39:01;34.08;32.52;38.33;;
69608;Laerm;57251;52.248;4.812;2023-04-10T00:39:12;33.28;31.62;38.93;;
69608;Laerm;57251;52.248;4.812;2023-04-10T00:39:22;33.76;31.31;39.68;;
69608;Laerm;57251;52.248;4.812;2023-04-10T00:39:32;33.35;31.63;35.64;;
69608;Laerm;57251;52.248;4.812;2023-04-10T00:39:44;37.42;32.10;47.03;;
69608;Laerm;57251;52.248;4.812;2023-04-10T00:39:54;35.01;33.10;44.84;;
69608;Laerm;57251;52.248;4.812;2023-04-10T00:40:05;36.63;33.56;40.52;;
69608;Laerm;57251;52.248;4.812;2023-04-10T00:40:15;35.99;34.14;43.57;;
69608;Laerm;57251;52.248;4.812;2023-04-10T00:40:25;37.01;33.36;41.47;;
69608;Laerm;57251;52.248;4.812;2023-04-10T00:40:36;40.97;36.67;45.90;;
69608;Laerm;57251;52.248;4.812;2023-04-10T00:40:46;46.03;38.79;52.96;;
69608;Laerm;57251;52.248;4.812;2023-04-10T00:40:56;45.63;40.18;50.10;;
69608;Laerm;57251;52.248;4.812;2023-04-10T00:41:06;45.76;40.66;49.97;;
69608;Laerm;57251;52.248;4.812;2023-04-10T00:41:17;44.42;39.65;49.32;;
69608;Laerm;57251;52.248;4.812;2023-04-10T00:41:27;45.25;40.64;50.49;;
69608;Laerm;57251;52.248;4.812;2023-04-10T00:41:38;43.92;38.46;49.81;;
69608;Laerm;57251;52.248;4.812;2023-04-10T00:41:48;42.40;34.35;52.91;;
69608;Laerm;57251;52.248;4.812;2023-04-10T00:41:58;47.84;32.84;60.02;;
69608;Laerm;57251;52.248;4.812;2023-04-10T00:42:10;36.53;33.04;44.86;;
69608;Laerm;57251;52.248;4.812;2023-04-10T00:42:20;44.80;32.73;59.35;;
69608;Laerm;57251;52.248;4.812;2023-04-10T00:42:31;37.21;32.64;44.84;;
69608;Laerm;57251;52.248;4.812;2023-04-10T00:42:41;34.78;32.21;38.65;;
69608;Laerm;57251;52.248;4.812;2023-04-10T00:42:52;33.60;31.07;41.38;;
69608;Laerm;57251;52.248;4.812;2023-04-10T00:43:02;34.32;31.35;41.00;;
69608;Laerm;57251;52.248;4.812;2023-04-10T00:43:12;33.32;31.53;38.63;;
69608;Laerm;57251;52.248;4.812;2023-04-10T00:43:22;32.82;31.41;39.96;;
69608;Laerm;57251;52.248;4.812;2023-04-10T00:43:33;34.68;30.88;44.29;;
69608;Laerm;57251;52.248;4.812;2023-04-10T00:43:43;33.12;31.62;37.23;;
69608;Laerm;57251;52.248;4.812;2023-04-10T00:43:54;34.71;32.50;36.63;;
69608;Laerm;57251;52.248;4.812;2023-04-10T00:44:05;39.67;33.08;51.75;;
69608;Laerm;57251;52.248;4.812;2023-04-10T00:44:16;37.20;33.43;45.80;;
69608;Laerm;57251;52.248;4.812;2023-04-10T00:44:26;36.55;31.93;48.44;;
69608;Laerm;57251;52.248;4.812;2023-04-10T00:44:36;34.11;31.87;36.50;;
69608;Laerm;57251;52.248;4.812;2023-04-10T00:44:47;33.86;32.23;36.99;;
69608;Laerm;57251;52.248;4.812;2023-04-10T00:44:57;33.35;31.59;37.87;;
69608;Laerm;57251;52.248;4.812;2023-04-10T00:45:07;38.43;32.86;44.55;;
69608;Laerm;57251;52.248;4.812;2023-04-10T00:45:18;36.20;32.08;44.09;;
69608;Laerm;57251;52.248;4.812;2023-04-10T00:45:28;33.16;31.20;37.77;;
69608;Laerm;57251;52.248;4.812;2023-04-10T00:45:38;32.10;30.73;34.62;;
69608;Laerm;57251;52.248;4.812;2023-04-10T00:45:49;32.62;30.63;39.57;;
69608;Laerm;57251;52.248;4.812;2023-04-10T00:45:59;32.03;30.80;33.14;;
69608;Laerm;57251;52.248;4.812;2023-04-10T00:46:10;41.59;31.40;53.69;;
69608;Laerm;57251;52.248;4.812;2023-04-10T00:46:21;34.61;31.24;45.85;;
69608;Laerm;57251;52.248;4.812;2023-04-10T00:46:31;38.77;31.31;48.72;;
69608;Laerm;57251;52.248;4.812;2023-04-10T00:46:42;32.74;30.81;39.94;;
69608;Laerm;57251;52.248;4.812;2023-04-10T00:46:52;49.38;31.49;59.15;;
69608;Laerm;57251;52.248;4.812;2023-04-10T00:47:03;39.63;31.44;53.70;;
69608;Laerm;57251;52.248;4.812;2023-04-10T00:47:14;34.59;31.02;43.53;;
69608;Laerm;57251;52.248;4.812;2023-04-10T00:47:24;33.26;30.88;41.95;;
69608;Laerm;57251;52.248;4.812;2023-04-10T00:47:35;37.05;30.54;49.92;;
69608;Laerm;57251;52.248;4.812;2023-04-10T00:47:46;37.79;31.29;49.79;;
69608;Laerm;57251;52.248;4.812;2023-04-10T00:47:56;32.16;30.81;35.23;;
69608;Laerm;57251;52.248;4.812;2023-04-10T00:48:06;32.12;30.94;33.80;;
69608;Laerm;57251;52.248;4.812;2023-04-10T00:48:17;31.86;30.70;33.36;;
69608;Laerm;57251;52.248;4.812;2023-04-10T00:48:27;39.58;30.91;54.25;;
69608;Laerm;57251;52.248;4.812;2023-04-10T00:48:38;46.23;32.84;61.19;;
69608;Laerm;57251;52.248;4.812;2023-04-10T00:48:49;34.35;32.00;39.75;;
69608;Laerm;57251;52.248;4.812;2023-04-10T00:48:59;32.79;31.10;36.52;;
69608;Laerm;57251;52.248;4.812;2023-04-10T00:49:10;32.37;30.95;35.28;;
69608;Laerm;57251;52.248;4.812;2023-04-10T00:49:20;32.88;31.26;39.67;;
69608;Laerm;57251;52.248;4.812;2023-04-10T00:49:30;32.59;31.31;35.34;;
69608;Laerm;57251;52.248;4.812;2023-04-10T00:49:41;43.34;30.95;58.05;;
69608;Laerm;57251;52.248;4.812;2023-04-10T00:49:52;50.01;30.57;60.80;;
69608;Laerm;57251;52.248;4.812;2023-04-10T00:50:03;44.48;31.50;57.95;;
69608;Laerm;57251;52.248;4.812;2023-04-10T00:50:13;35.12;31.07;45.54;;
69608;Laerm;57251;52.248;4.812;2023-04-10T00:50:24;40.89;31.44;52.13;;
69608;Laerm;57251;52.248;4.812;2023-04-10T00:50:34;40.37;31.31;54.80;;
69608;Laerm;57251;52.248;4.812;2023-04-10T00:50:45;48.57;31.43;63.23;;
69608;Laerm;57251;52.248;4.812;2023-04-10T00:50:55;41.52;31.20;53.08;;
69608;Laerm;57251;52.248;4.812;2023-04-10T00:51:06;38.46;31.52;53.17;;
69608;Laerm;57251;52.248;4.812;2023-04-10T00:51:16;41.59;31.13;57.38;;
69608;Laerm;57251;52.248;4.812;2023-04-10T00:51:29;41.57;31.24;56.16;;
69608;Laerm;57251;52.248;4.812;2023-04-10T00:51:40;32.23;30.39;34.15;;
69608;Laerm;57251;52.248;4.812;2023-04-10T00:51:50;35.11;30.88;47.04;;
69608;Laerm;57251;52.248;4.812;2023-04-10T00:52:01;38.09;31.37;49.53;;
69608;Laerm;57251;52.248;4.812;2023-04-10T00:52:11;40.55;31.37;53.22;;
69608;Laerm;57251;52.248;4.812;2023-04-10T00:52:22;33.11;31.58;34.84;;
69608;Laerm;57251;52.248;4.812;2023-04-10T00:52:33;42.37;31.66;55.28;;
69608;Laerm;57251;52.248;4.812;2023-04-10T00:52:44;40.35;31.30;56.16;;
69608;Laerm;57251;52.248;4.812;2023-04-10T00:52:54;41.14;31.79;54.94;;
69608;Laerm;57251;52.248;4.812;2023-04-10T00:53:06;39.98;31.05;50.80;;
69608;Laerm;57251;52.248;4.812;2023-04-10T00:53:16;40.00;32.26;49.17;;
69608;Laerm;57251;52.248;4.812;2023-04-10T00:53:27;39.89;31.54;53.02;;
69608;Laerm;57251;52.248;4.812;2023-04-10T00:53:37;31.92;30.67;35.94;;
69608;Laerm;57251;52.248;4.812;2023-04-10T00:53:48;40.28;30.98;49.08;;
69608;Laerm;57251;52.248;4.812;2023-04-10T00:54:00;40.23;31.59;51.72;;
69608;Laerm;57251;52.248;4.812;2023-04-10T00:54:11;38.72;31.39;54.27;;
69608;Laerm;57251;52.248;4.812;2023-04-10T00:54:22;39.06;30.86;51.61;;
69608;Laerm;57251;52.248;4.812;2023-04-10T00:54:32;39.71;31.11;52.91;;
69608;Laerm;57251;52.248;4.812;2023-04-10T00:54:45;33.24;31.62;36.12;;
69608;Laerm;57251;52.248;4.812;2023-04-10T00:54:55;34.68;31.03;49.48;;
69608;Laerm;57251;52.248;4.812;2023-04-10T00:55:05;33.53;31.32;38.18;;
69608;Laerm;57251;52.248;4.812;2023-04-10T00:55:16;32.89;31.37;38.01;;
69608;Laerm;57251;52.248;4.812;2023-04-10T00:55:27;41.51;31.52;54.76;;
69608;Laerm;57251;52.248;4.812;2023-04-10T00:55:37;44.48;31.95;58.58;;
69608;Laerm;57251;52.248;4.812;2023-04-10T00:55:48;33.14;30.69;41.51;;
69608;Laerm;57251;52.248;4.812;2023-04-10T00:55:58;31.92;30.44;35.34;;
69608;Laerm;57251;52.248;4.812;2023-04-10T00:56:09;35.34;30.52;45.15;;
69608;Laerm;57251;52.248;4.812;2023-04-10T00:56:20;32.51;30.75;36.80;;
69608;Laerm;57251;52.248;4.812;2023-04-10T00:56:30;32.97;31.08;36.16;;
69608;Laerm;57251;52.248;4.812;2023-04-10T00:56:41;32.88;30.88;34.80;;
69608;Laerm;57251;52.248;4.812;2023-04-10T00:56:52;32.44;31.05;33.77;;
69608;Laerm;57251;52.248;4.812;2023-04-10T00:57:02;32.68;31.30;34.52;;
69608;Laerm;57251;52.248;4.812;2023-04-10T00:57:13;32.92;31.48;36.26;;
69608;Laerm;57251;52.248;4.812;2023-04-10T00:57:24;44.55;30.78;57.52;;
69608;Laerm;57251;52.248;4.812;2023-04-10T00:57:35;43.47;32.20;58.86;;
69608;Laerm;57251;52.248;4.812;2023-04-10T00:57:46;40.95;32.74;54.06;;
69608;Laerm;57251;52.248;4.812;2023-04-10T00:57:56;36.14;32.99;44.96;;
69608;Laerm;57251;52.248;4.812;2023-04-10T00:58:07;34.88;32.50;45.61;;
69608;Laerm;57251;52.248;4.812;2023-04-10T00:58:17;33.55;31.65;35.86;;
69608;Laerm;57251;52.248;4.812;2023-04-10T00:58:27;32.98;31.34;35.04;;
69608;Laerm;57251;52.248;4.812;2023-04-10T00:58:38;32.72;31.17;34.81;;
69608;Laerm;57251;52.248;4.812;2023-04-10T00:58:48;34.48;30.52;46.26;;
69608;Laerm;57251;52.248;4.812;2023-04-10T00:58:58;47.87;32.63;60.08;;
69608;Laerm;57251;52.248;4.812;2023-04-10T00:59:08;37.73;30.41;48.63;;
69608;Laerm;57251;52.248;4.812;2023-04-10T00:59:19;32.62;30.94;34.91;;
69608;Laerm;57251;52.248;4.812;2023-04-10T00:59:29;33.19;31.58;41.87;;
69608;Laerm;57251;52.248;4.812;2023-04-10T00:59:40;41.56;31.54;59.09;;
69608;Laerm;57251;52.248;4.812;2023-04-10T00:59:50;40.75;31.51;54.47;;
69608;Laerm;57251;52.248;4.812;2023-04-10T01:00:02;32.70;31.27;34.27;;
69608;Laerm;57251;52.248;4.812;2023-04-10T01:00:14;33.17;31.08;37.97;;
69608;Laerm;57251;52.248;4.812;2023-04-10T01:00:24;33.88;31.77;40.02;;
69608;Laerm;57251;52.248;4.812;2023-04-10T01:00:35;32.82;31.36;36.44;;
69608;Laerm;57251;52.248;4.812;2023-04-10T01:00:45;32.70;31.06;34.31;;
69608;Laerm;57251;52.248;4.812;2023-04-10T01:00:56;33.17;31.74;34.83;;
69608;Laerm;57251;52.248;4.812;2023-04-10T01:01:07;34.39;32.45;38.53;;
69608;Laerm;57251;52.248;4.812;2023-04-10T01:01:18;34.97;32.55;37.64;;
69608;Laerm;57251;52.248;4.812;2023-04-10T01:01:28;41.83;35.09;56.05;;
69608;Laerm;57251;52.248;4.812;2023-04-10T01:01:38;42.42;32.75;57.58;;
69608;Laerm;57251;52.248;4.812;2023-04-10T01:01:48;39.76;31.45;50.51;;
69608;Laerm;57251;52.248;4.812;2023-04-10T01:01:59;34.61;31.37;38.44;;
69608;Laerm;57251;52.248;4.812;2023-04-10T01:02:09;34.71;32.89;38.61;;
69608;Laerm;57251;52.248;4.812;2023-04-10T01:02:22;33.93;31.42;38.71;;
69608;Laerm;57251;52.248;4.812;2023-04-10T01:02:32;35.15;31.70;44.77;;
69608;Laerm;57251;52.248;4.812;2023-04-10T01:02:42;47.12;31.16;60.72;;
69608;Laerm;57251;52.248;4.812;2023-04-10T01:02:53;43.81;30.88;58.53;;
69608;Laerm;57251;52.248;4.812;2023-04-10T01:03:04;43.85;31.62;56.18;;
69608;Laerm;57251;52.248;4.812;2023-04-10T01:03:14;33.56;30.92;38.94;;
69608;Laerm;57251;52.248;4.812;2023-04-10T01:03:25;32.77;31.30;35.62;;
69608;Laerm;57251;52.248;4.812;2023-04-10T01:03:36;33.87;31.00;38.66;;
69608;Laerm;57251;52.248;4.812;2023-04-10T01:03:47;33.35;31.12;41.46;;
69608;Laerm;57251;52.248;4.812;2023-04-10T01:03:57;34.31;31.72;41.33;;
69608;Laerm;57251;52.248;4.812;2023-04-10T01:04:08;32.66;31.29;34.00;;
69608;Laerm;57251;52.248;4.812;2023-04-10T01:04:19;33.73;31.54;39.02;;
69608;Laerm;57251;52.248;4.812;2023-04-10T01:04:29;34.45;31.73;37.68;;
69608;Laerm;57251;52.248;4.812;2023-04-10T01:04:41;35.30;32.36;40.78;;
69608;Laerm;57251;52.248;4.812;2023-04-10T01:04:52;38.98;34.17;48.25;;
69608;Laerm;57251;52.248;4.812;2023-04-10T01:05:02;34.08;31.10;40.14;;
69608;Laerm;57251;52.248;4.812;2023-04-10T01:05:12;32.49;31.20;33.94;;
69608;Laerm;57251;52.248;4.812;2023-04-10T01:05:22;33.26;31.60;38.89;;
69608;Laerm;57251;52.248;4.812;2023-04-10T01:05:34;33.05;30.91;37.93;;
69608;Laerm;57251;52.248;4.812;2023-04-10T01:05:55;36.11;30.85;48.84;;
69608;Laerm;57251;52.248;4.812;2023-04-10T01:06:34;36.57;30.95;50.98;;
69608;Laerm;57251;52.248;4.812;2023-04-10T01:07:08;32.39;30.76;34.69;;
69608;Laerm;57251;52.248;4.812;2023-04-10T01:08:22;35.84;30.73;48.08;;
69608;Laerm;57251;52.248;4.812;2023-04-10T01:08:43;35.90;30.98;49.14;;
69608;Laerm;57251;52.248;4.812;2023-04-10T01:09:16;32.37;30.96;34.82;;
69608;Laerm;57251;52.248;4.812;2023-04-10T01:09:40;38.57;30.94;52.29;;
69608;Laerm;57251;52.248;4.812;2023-04-10T01:09:52;32.16;30.45;33.98;;
69608;Laerm;57251;52.248;4.812;2023-04-10T01:10:17;33.42;30.74;38.73;;
69608;Laerm;57251;52.248;4.812;2023-04-10T01:10:37;41.25;30.87;57.44;;
69608;Laerm;57251;52.248;4.812;2023-04-10T01:11:04;36.38;31.07;48.00;;
69608;Laerm;57251;52.248;4.812;2023-04-10T01:11:23;32.89;30.63;37.20;;
69608;Laerm;57251;52.248;4.812;2023-04-10T01:12:05;33.81;30.32;45.00;;
69608;Laerm;57251;52.248;4.812;2023-04-10T01:12:54;31.82;30.54;33.17;;
69608;Laerm;57251;52.248;4.812;2023-04-10T01:13:24;32.08;30.55;39.50;;
69608;Laerm;57251;52.248;4.812;2023-04-10T01:13:43;35.99;30.65;48.56;;
69608;Laerm;57251;52.248;4.812;2023-04-10T01:14:02;32.81;30.68;40.60;;
69608;Laerm;57251;52.248;4.812;2023-04-10T01:14:15;33.28;30.88;45.55;;
69608;Laerm;57251;52.248;4.812;2023-04-10T01:14:56;31.97;30.81;33.74;;
69608;Laerm;57251;52.248;4.812;2023-04-10T01:15:14;33.97;30.86;41.30;;
69608;Laerm;57251;52.248;4.812;2023-04-10T01:15:26;33.55;30.67;45.27;;
69608;Laerm;57251;52.248;4.812;2023-04-10T01:15:40;31.83;30.21;35.10;;
69608;Laerm;57251;52.248;4.812;2023-04-10T01:16:10;50.51;30.57;63.44;;